PDT,Max TemperatureF,Mean TemperatureF,Min TemperatureF,Max Dew PointF,MeanDew PointF,Min DewpointF,Max Humidity, Mean Humidity, Min Humidity, Max Sea Level PressureIn, Mean Sea Level PressureIn, Min Sea Level PressureIn, Max VisibilityMiles, Mean VisibilityMiles, Min VisibilityMiles, Max Wind SpeedMPH, Mean Wind SpeedMPH, Max Gust SpeedMPH,PrecipitationIn, CloudCover, Events, WindDirDegrees
2014-3-1,66,60,53,50,46,44,89,67,45,29.86,29.69,29.56,10,10,10,28,13,37,0.14,4,Rain,134
2014-3-2,64,57,49,55,50,46,93,77,60,30.18,30.02,29.86,10,9,2,18,6,26,0.06,5,Rain,144
2014-3-3,62,54,46,54,49,45,100,85,69,30.17,30.13,30.07,10,5,0,10,3,13,T,6,Fog-Rain,128
2014-3-4,67,60,53,55,53,50,100,84,67,30.12,30.09,30.03,10,10,6,13,3,16,0.03,5,Rain,304
2014-3-5,71,62,53,57,53,48,93,75,57,30.11,30.06,30.01,10,9,3,10,4,17,0.00,5,,152
2014-3-6,69,64,58,58,52,43,93,66,39,30.16,30.11,30.04,10,10,10,17,7,23,0.05,3,Rain,333
2014-3-7,69,59,49,49,46,44,86,64,42,30.16,30.12,30.08,10,10,10,20,9,26,0.00,0,,323
2014-3-8,71,57,43,51,46,42,100,71,41,30.21,30.15,30.10,10,7,0,9,2,12,0.00,0,Fog,124
2014-3-9,75,65,54,53,50,45,86,60,33,30.19,30.13,30.08,10,10,8,10,3,13,0.00,0,,136
2014-3-10,69,61,53,55,49,39,89,63,37,30.22,30.15,30.07,10,9,5,20,6,26,0.09,4,Rain,323
2014-3-11,68,59,49,43,38,33,66,50,34,30.15,30.08,30.00,10,10,10,22,13,30,0.00,0,,316
2014-3-12,75,59,42,40,35,25,83,50,16,30.10,30.03,29.98,10,10,9,14,3,17,0.00,0,,289
2014-3-13,77,61,45,40,35,22,71,43,15,30.04,30.00,29.94,10,10,10,17,8,22,0.00,0,,311
2014-3-14,72,57,41,49,42,38,89,62,35,30.19,30.12,30.02,10,10,10,16,6,20,0.00,0,,353
2014-3-15,79,63,47,48,45,36,86,55,23,30.31,30.25,30.18,10,10,10,13,5,21,0.00,0,,334
2014-3-16,83,65,47,49,45,29,93,60,26,30.31,30.23,30.13,10,10,6,18,4,23,0.00,0,,62
2014-3-17,70,60,50,47,38,24,71,47,22,30.16,30.05,29.94,10,10,10,23,13,29,0.00,0,,325
2014-3-18,71,60,48,44,33,29,71,47,22,29.98,29.93,29.89,10,10,10,18,10,27,0.00,0,,318
2014-3-19,78,60,42,43,40,35,89,55,21,30.09,30.03,29.97,10,10,9,10,1,13,0.00,0,,322
2014-3-20,79,65,51,45,42,37,77,50,23,30.04,29.98,29.90,10,10,10,14,3,16,0.00,0,,326
2014-3-21,77,63,48,47,42,36,80,51,22,29.96,29.92,29.87,10,10,10,13,4,16,0.00,0,,330
2014-3-22,76,61,46,47,42,36,82,54,25,30.07,30.01,29.94,10,10,9,14,7,18,0.00,0,,327
2014-3-23,79,62,45,45,41,28,80,48,16,30.15,30.09,30.04,10,10,10,13,5,18,0.00,0,,331
2014-3-24,82,64,45,46,43,39,86,55,23,30.14,30.06,29.98,10,10,9,12,3,15,0.00,0,,329
2014-3-25,72,61,50,51,41,29,57,41,24,30.00,29.93,29.84,10,10,5,17,7,22,0.00,3,Rain,337
2014-3-26,60,55,50,54,50,45,96,87,77,29.99,29.88,29.83,10,8,3,16,5,22,0.43,6,Rain,127
2014-3-27,65,56,46,48,45,41,100,72,44,30.14,30.06,30.00,10,10,7,9,2,13,0.00,4,Rain,29
2014-3-28,73,60,47,51,46,42,93,64,35,30.21,30.14,30.08,10,10,10,15,4,20,0.00,1,,100
2014-3-29,68,60,51,55,51,48,89,71,52,30.13,30.04,29.99,10,8,2,17,6,21,0.04,5,Rain,5
2014-3-30,63,54,44,50,45,40,100,72,43,30.13,30.07,30.04,10,6,0,10,2,17,0.00,3,Fog-Rain,317
2014-3-31,61,55,48,44,30,20,86,57,27,30.08,29.94,29.83,10,10,10,21,5,32,T,4,Rain,142